createdAt,value
2023-02-07T00:02:07.206Z,100056.64
2023-02-07T00:04:35.929Z,100056.83
2023-02-07T00:07:11.776Z,100055.84
2023-02-07T00:09:40.222Z,100058.08
2023-02-07T00:12:08.954Z,100054.21
2023-02-07T00:14:38.322Z,100052.70
2023-02-07T00:17:07.031Z,100058.61
2023-02-07T00:19:35.713Z,100062.48
2023-02-07T00:22:04.076Z,100057.75
2023-02-07T00:24:32.147Z,100058.10
2023-02-07T00:27:00.842Z,100056.07
2023-02-07T00:29:28.974Z,100051.16
2023-02-07T00:31:57.171Z,100045.41
2023-02-07T07:39:57.419Z,99981.20
2023-02-07T07:42:47.309Z,99979.48
2023-02-07T07:45:27.847Z,99982.34
2023-02-07T07:50:43.032Z,99974.63
2023-02-07T07:53:11.376Z,99976.45
2023-02-07T07:55:39.593Z,99977.10
2023-02-07T07:58:07.868Z,99978.10
2023-02-07T08:01:06.089Z,99976.38
2023-02-07T08:03:34.745Z,99973.47
2023-02-07T08:06:03.503Z,99975.50
2023-02-07T08:08:54.587Z,99973.45
2023-02-07T08:11:30.277Z,99976.33
2023-02-07T08:13:59.220Z,99976.79
2023-02-07T08:16:30.402Z,99981.67
2023-02-07T08:18:58.801Z,99979.42
2023-02-07T08:21:27.503Z,99979.05
2023-02-07T08:23:57.003Z,99978.48
2023-02-07T08:26:26.106Z,99981.36
2023-02-07T08:28:55.077Z,99979.27
2023-02-07T08:31:28.070Z,99977.86
2023-02-07T08:34:24.026Z,99972.19
2023-02-07T08:36:53.382Z,99971.61
2023-02-07T08:39:21.804Z,99968.33
2023-02-07T08:41:53.519Z,99967.46
2023-02-07T08:44:23.479Z,99969.68
2023-02-07T08:46:51.792Z,99971.33
2023-02-07T08:49:23.105Z,99972.30
2023-02-07T08:51:52.876Z,99968.82
2023-02-07T08:54:25.056Z,99974.36
2023-02-07T08:56:53.671Z,99972.23
2023-02-07T08:59:26.772Z,99976.45
2023-02-07T09:01:55.373Z,99981.88
2023-02-07T09:04:24.471Z,99980.70
2023-02-07T09:06:56.303Z,99982.21
2023-02-07T09:09:30.407Z,99980.83
2023-02-07T09:12:04.628Z,99976.92
2023-02-07T09:14:33.620Z,99981.20
2023-02-07T09:17:03.324Z,99982.93
2023-02-07T09:19:35.078Z,99978.99
2023-02-07T09:22:06.876Z,99981.06
2023-02-07T09:24:35.638Z,99981.77
2023-02-07T09:27:09.245Z,99981.05
2023-02-07T09:29:37.820Z,99976.92
2023-02-07T09:32:06.440Z,99973.85
2023-02-07T09:34:35.326Z,99972.92
2023-02-07T09:37:05.520Z,99970.83
2023-02-07T09:39:57.410Z,99971.16
2023-02-07T09:42:43.507Z,99970.84
2023-02-07T09:45:31.822Z,99968.14
2023-02-07T09:48:08.354Z,99963.60
2023-02-07T09:50:44.449Z,99964.13
2023-02-07T09:53:16.868Z,99963.06
2023-02-07T09:55:45.457Z,99957.04
2023-02-07T09:58:40.826Z,99952.05
2023-02-07T10:01:40.119Z,99954.25
2023-02-07T10:04:22.761Z,99953.94
2023-02-07T10:06:57.181Z,99956.35
2023-02-07T10:09:33.763Z,99960.32
2023-02-07T10:12:30.770Z,99963.69
2023-02-07T10:15:18.598Z,99959.58
2023-02-07T10:18:13.373Z,99957.84
2023-02-07T10:20:48.735Z,99955.58
2023-02-07T10:23:42.351Z,99951.95
2023-02-07T10:26:33.206Z,99956.31
2023-02-07T10:29:01.563Z,99953.52
2023-02-07T10:31:30.507Z,99955.48
2023-02-07T10:34:11.213Z,99954.71
2023-02-07T10:36:40.937Z,99954.62
2023-02-07T10:39:32.926Z,99953.41
2023-02-07T10:42:01.309Z,99955.91
2023-02-07T10:44:30.690Z,99953.48
2023-02-07T10:49:49.015Z,99958.39
2023-02-07T10:52:34.137Z,99959.27
2023-02-07T10:55:08.074Z,99952.77
2023-02-07T10:57:36.425Z,99956.56
2023-02-07T11:00:23.584Z,99955.19
2023-02-07T11:03:15.556Z,99952.38
2023-02-07T11:05:55.745Z,99947.63
2023-02-07T11:08:33.472Z,99953.50
2023-02-07T11:11:31.975Z,99949.01
2023-02-07T11:14:07.557Z,99952.20
2023-02-07T11:16:36.987Z,99952.30
2023-02-07T11:19:06.593Z,99951.77
2023-02-07T11:21:38.906Z,99953.96
2023-02-07T11:24:13.900Z,99956.54
2023-02-07T11:27:02.712Z,99956.23
2023-02-07T11:29:32.583Z,99956.13
2023-02-07T11:32:01.149Z,99954.80
2023-02-07T11:34:46.029Z,99956.57
2023-02-07T11:37:17.242Z,99958.73
2023-02-07T11:39:45.511Z,99961.98
2023-02-07T11:42:32.370Z,99968.04
2023-02-07T11:45:21.498Z,99973.48
2023-02-07T11:48:07.697Z,99970.01
2023-02-07T11:50:39.729Z,99973.84
2023-02-07T11:53:16.944Z,99971.06
2023-02-07T11:55:45.736Z,99967.63
2023-02-07T11:58:27.477Z,99971.95
2023-02-07T12:00:56.222Z,99972.84
2023-02-07T12:03:29.177Z,99974.39
2023-02-07T12:06:18.776Z,99979.11
2023-02-07T12:08:47.081Z,99984.00
2023-02-07T12:11:27.927Z,99990.30
2023-02-07T12:13:58.687Z,99991.80
2023-02-07T12:16:34.711Z,99995.38
2023-02-07T12:19:29.724Z,99997.95
2023-02-07T12:22:21.960Z,100003.73
2023-02-07T12:25:30.850Z,100004.52
2023-02-07T12:28:48.009Z,100005.80
2023-02-07T12:31:59.644Z,100009.85
2023-02-07T12:35:19.649Z,100014.76
2023-02-07T12:37:50.674Z,100014.91
2023-02-07T12:40:41.661Z,100016.50
2023-02-07T12:43:23.094Z,100018.05
2023-02-07T12:46:03.955Z,100018.06
2023-02-07T12:48:32.673Z,100018.07
2023-02-07T12:51:11.417Z,100022.64
2023-02-07T12:54:13.986Z,100020.41
2023-02-07T12:56:53.687Z,100027.55
2023-02-07T12:59:31.292Z,100031.81
2023-02-07T13:02:14.915Z,100031.52
2023-02-07T13:05:23.467Z,100033.46
2023-02-07T13:08:24.219Z,100041.56
2023-02-07T13:11:18.492Z,100037.82
2023-02-07T13:14:00.148Z,100035.86
2023-02-07T13:17:12.956Z,100041.50
2023-02-07T13:19:53.474Z,100043.58
2023-02-07T13:22:49.667Z,100050.79
2023-02-07T13:25:44.849Z,100057.81
2023-02-07T13:28:26.825Z,100060.55
2023-02-07T13:30:57.496Z,100061.60
2023-02-07T13:36:45.475Z,100070.69
2023-02-07T13:39:32.792Z,100076.32
2023-02-07T13:42:25.977Z,100079.73
2023-02-07T13:45:13.109Z,100084.36
2023-02-07T13:47:46.530Z,100084.55
2023-02-07T13:50:24.482Z,100088.48
2023-02-07T13:53:29.016Z,100092.94
2023-02-07T13:56:02.895Z,100098.75
2023-02-07T13:58:57.338Z,100105.21
2023-02-07T14:01:31.255Z,100111.70
2023-02-07T14:04:11.568Z,100119.33
2023-02-07T14:07:26.964Z,100127.31
2023-02-07T14:09:56.959Z,100134.95
2023-02-07T14:12:45.708Z,100138.17
2023-02-07T14:15:44.190Z,100145.81
2023-02-07T14:19:09.819Z,100152.77
2023-02-07T14:21:39.987Z,100155.98
2023-02-07T14:24:35.053Z,100160.02
2023-02-07T14:27:06.564Z,100166.27
2023-02-07T14:29:35.185Z,100173.70
2023-02-07T14:35:26.742Z,100173.67
2023-02-07T14:38:07.420Z,100173.80
2023-02-07T14:41:01.801Z,100181.92
2023-02-07T14:44:11.167Z,100188.42
2023-02-07T14:46:48.797Z,100193.31
2023-02-07T14:49:50.790Z,100199.72
2023-02-07T14:52:32.055Z,100204.77
2023-02-07T14:55:29.752Z,100211.36
2023-02-07T15:01:21.514Z,100221.83
2023-02-07T15:04:00.673Z,100224.70
2023-02-07T15:06:32.645Z,100227.08
2023-02-07T15:09:04.110Z,100224.21
2023-02-07T15:14:33.867Z,100235.58
2023-02-07T15:17:03.662Z,100241.83
2023-02-07T15:19:36.959Z,100246.59
2023-02-07T15:22:11.798Z,100252.30
2023-02-07T15:24:51.803Z,100264.14
2023-02-07T15:27:23.280Z,100261.59
2023-02-07T15:29:59.852Z,100269.85
2023-02-07T15:32:34.723Z,100280.15
2023-02-07T15:35:16.738Z,100283.33
2023-02-07T15:37:47.408Z,100284.30
2023-02-07T15:40:17.994Z,100300.50
2023-02-07T15:42:50.019Z,100296.52
2023-02-07T15:48:16.244Z,100306.52
2023-02-07T15:50:44.966Z,100311.55
2023-02-07T15:53:20.274Z,100322.36
2023-02-07T15:55:51.027Z,100331.98
2023-02-07T15:58:33.228Z,100333.32
2023-02-07T16:01:02.817Z,100343.88
2023-02-07T16:03:37.977Z,100346.13
2023-02-07T16:06:20.870Z,100349.47
2023-02-07T16:08:50.687Z,100356.39
2023-02-07T16:11:26.149Z,100359.93
2023-02-07T16:14:04.882Z,100367.21
2023-02-07T16:16:40.624Z,100373.63
2023-02-07T16:22:13.810Z,100377.34
2023-02-07T16:24:46.851Z,100384.24
2023-02-07T16:27:30.541Z,100389.62
2023-02-07T16:29:59.679Z,100390.88
2023-02-07T16:32:31.248Z,100393.33
2023-02-07T16:35:00.446Z,100396.55
2023-02-07T16:37:32.237Z,100397.86
2023-02-07T16:40:00.837Z,100402.63
2023-02-07T16:42:29.303Z,100405.08
2023-02-07T16:44:57.592Z,100403.58
2023-02-07T16:47:26.003Z,100405.94
2023-02-07T16:49:54.550Z,100409.66
2023-02-07T16:52:23.754Z,100412.52
2023-02-07T16:54:52.173Z,100412.29
2023-02-07T16:57:20.456Z,100412.79
2023-02-07T16:59:51.503Z,100417.88
2023-02-07T17:02:20.576Z,100422.69
2023-02-07T17:04:49.930Z,100426.00
2023-02-07T17:07:18.081Z,100428.10
2023-02-07T17:09:49.477Z,100430.98
2023-02-07T17:12:17.701Z,100432.14
2023-02-07T17:14:47.986Z,100433.88
2023-02-07T17:17:16.255Z,100435.95
2023-02-07T17:19:47.647Z,100441.88
2023-02-07T17:22:15.714Z,100445.06
2023-02-07T17:27:30.289Z,100453.05
2023-02-07T17:30:01.261Z,100452.12
2023-02-07T17:37:31.172Z,100461.80
